sensor_id;sensor_type;location;lat;lon;timestamp;P1;durP1;ratioP1;P2;durP2;ratioP2
1014;SDS011;8170;48.118;11.628;2023-04-06T00:00:36;10.23;;;9.10;;
1014;SDS011;8170;48.118;11.628;2023-04-06T00:01:39;10.35;;;8.98;;
1014;SDS011;8170;48.118;11.628;2023-04-06T00:02:42;10.35;;;9.15;;
1014;SDS011;8170;48.118;11.628;2023-04-06T00:03:45;11.30;;;8.05;;
1014;SDS011;8170;48.118;11.628;2023-04-06T00:04:48;12.20;;;9.20;;
1014;SDS011;8170;48.118;11.628;2023-04-06T00:05:51;11.85;;;9.10;;
1014;SDS011;8170;48.118;11.628;2023-04-06T00:06:53;14.95;;;9.10;;
1014;SDS011;8170;48.118;11.628;2023-04-06T00:07:57;11.55;;;8.93;;
1014;SDS011;8170;48.118;11.628;2023-04-06T00:09:00;8.10;;;7.35;;
1014;SDS011;8170;48.118;11.628;2023-04-06T00:10:04;9.32;;;7.75;;
1014;SDS011;8170;48.118;11.628;2023-04-06T00:11:07;9.02;;;8.13;;
1014;SDS011;8170;48.118;11.628;2023-04-06T00:12:10;10.00;;;8.02;;
1014;SDS011;8170;48.118;11.628;2023-04-06T00:13:12;11.25;;;9.38;;
1014;SDS011;8170;48.118;11.628;2023-04-06T00:14:16;9.77;;;8.95;;
1014;SDS011;8170;48.118;11.628;2023-04-06T00:15:18;11.07;;;8.63;;
1014;SDS011;8170;48.118;11.628;2023-04-06T00:16:23;10.20;;;8.50;;
1014;SDS011;8170;48.118;11.628;2023-04-06T00:17:28;9.50;;;7.72;;
1014;SDS011;8170;48.118;11.628;2023-04-06T00:18:31;9.75;;;7.95;;
1014;SDS011;8170;48.118;11.628;2023-04-06T00:19:34;9.27;;;7.90;;
1014;SDS011;8170;48.118;11.628;2023-04-06T00:22:36;11.10;;;9.00;;
1014;SDS011;8170;48.118;11.628;2023-04-06T00:27:51;9.18;;;7.93;;
1014;SDS011;8170;48.118;11.628;2023-04-06T00:29:13;11.05;;;8.25;;
1014;SDS011;8170;48.118;11.628;2023-04-06T00:32:15;10.70;;;8.40;;
1014;SDS011;8170;48.118;11.628;2023-04-06T00:34:49;10.27;;;8.95;;
1014;SDS011;8170;48.118;11.628;2023-04-06T00:39:03;8.00;;;7.20;;
1014;SDS011;8170;48.118;11.628;2023-04-06T00:51:34;9.65;;;7.30;;
1014;SDS011;8170;48.118;11.628;2023-04-06T00:53:18;9.55;;;7.57;;
1014;SDS011;8170;48.118;11.628;2023-04-06T00:55:27;11.73;;;8.45;;
1014;SDS011;8170;48.118;11.628;2023-04-06T00:58:51;10.85;;;8.60;;
1014;SDS011;8170;48.118;11.628;2023-04-06T00:59:58;9.57;;;8.30;;
1014;SDS011;8170;48.118;11.628;2023-04-06T01:01:01;9.32;;;8.40;;
1014;SDS011;8170;48.118;11.628;2023-04-06T01:02:12;10.50;;;8.63;;
1014;SDS011;8170;48.118;11.628;2023-04-06T01:03:20;10.00;;;8.27;;
1014;SDS011;8170;48.118;11.628;2023-04-06T01:15:52;9.48;;;7.70;;
1014;SDS011;8170;48.118;11.628;2023-04-06T01:17:55;13.65;;;8.55;;
1014;SDS011;8170;48.118;11.628;2023-04-06T01:19:11;10.32;;;8.15;;
1014;SDS011;8170;48.118;11.628;2023-04-06T01:29:09;9.98;;;7.28;;
1014;SDS011;8170;48.118;11.628;2023-04-06T01:31:16;13.57;;;8.20;;
1014;SDS011;8170;48.118;11.628;2023-04-06T01:32:24;8.95;;;7.85;;
1014;SDS011;8170;48.118;11.628;2023-04-06T01:33:27;11.07;;;7.60;;
1014;SDS011;8170;48.118;11.628;2023-04-06T01:34:35;11.60;;;8.20;;
1014;SDS011;8170;48.118;11.628;2023-04-06T01:35:39;8.38;;;6.90;;
1014;SDS011;8170;48.118;11.628;2023-04-06T01:36:49;10.75;;;8.43;;
1014;SDS011;8170;48.118;11.628;2023-04-06T01:37:57;7.40;;;6.70;;
1014;SDS011;8170;48.118;11.628;2023-04-06T01:39:04;7.07;;;6.38;;
1014;SDS011;8170;48.118;11.628;2023-04-06T01:40:10;7.28;;;6.57;;
1014;SDS011;8170;48.118;11.628;2023-04-06T01:41:20;8.88;;;7.22;;
1014;SDS011;8170;48.118;11.628;2023-04-06T01:42:25;8.90;;;7.43;;
1014;SDS011;8170;48.118;11.628;2023-04-06T01:43:29;8.45;;;7.00;;
1014;SDS011;8170;48.118;11.628;2023-04-06T01:44:44;8.00;;;6.32;;
1014;SDS011;8170;48.118;11.628;2023-04-06T01:45:49;8.30;;;7.50;;
1014;SDS011;8170;48.118;11.628;2023-04-06T01:46:54;8.48;;;7.50;;
1014;SDS011;8170;48.118;11.628;2023-04-06T01:47:58;9.48;;;7.78;;
1014;SDS011;8170;48.118;11.628;2023-04-06T01:49:02;9.23;;;6.95;;
1014;SDS011;8170;48.118;11.628;2023-04-06T01:50:09;8.90;;;6.95;;
1014;SDS011;8170;48.118;11.628;2023-04-06T01:51:16;10.63;;;7.80;;
1014;SDS011;8170;48.118;11.628;2023-04-06T01:52:25;9.00;;;7.75;;
1014;SDS011;8170;48.118;11.628;2023-04-06T01:53:28;9.77;;;7.38;;
1014;SDS011;8170;48.118;11.628;2023-04-06T01:54:37;9.70;;;8.35;;
1014;SDS011;8170;48.118;11.628;2023-04-06T01:55:49;10.00;;;7.82;;
1014;SDS011;8170;48.118;11.628;2023-04-06T01:56:59;9.93;;;8.00;;
1014;SDS011;8170;48.118;11.628;2023-04-06T01:58:16;8.13;;;7.20;;
1014;SDS011;8170;48.118;11.628;2023-04-06T01:59:19;11.35;;;8.02;;
1014;SDS011;8170;48.118;11.628;2023-04-06T02:00:23;9.38;;;7.70;;
1014;SDS011;8170;48.118;11.628;2023-04-06T02:01:31;7.97;;;7.18;;
1014;SDS011;8170;48.118;11.628;2023-04-06T02:02:33;7.90;;;7.07;;
1014;SDS011;8170;48.118;11.628;2023-04-06T02:03:41;8.05;;;7.22;;
1014;SDS011;8170;48.118;11.628;2023-04-06T02:04:44;14.75;;;7.90;;
1014;SDS011;8170;48.118;11.628;2023-04-06T02:05:48;9.35;;;8.02;;
1014;SDS011;8170;48.118;11.628;2023-04-06T02:07:08;8.45;;;7.63;;
1014;SDS011;8170;48.118;11.628;2023-04-06T02:08:11;8.48;;;7.50;;
1014;SDS011;8170;48.118;11.628;2023-04-06T02:09:14;8.50;;;7.25;;
1014;SDS011;8170;48.118;11.628;2023-04-06T02:10:17;12.93;;;7.75;;
1014;SDS011;8170;48.118;11.628;2023-04-06T02:11:20;8.95;;;8.05;;
1014;SDS011;8170;48.118;11.628;2023-04-06T02:12:27;8.88;;;7.00;;
1014;SDS011;8170;48.118;11.628;2023-04-06T02:13:29;8.60;;;7.20;;
1014;SDS011;8170;48.118;11.628;2023-04-06T02:14:32;8.02;;;6.50;;
1014;SDS011;8170;48.118;11.628;2023-04-06T02:15:36;9.27;;;7.25;;
1014;SDS011;8170;48.118;11.628;2023-04-06T02:16:39;8.75;;;7.85;;
1014;SDS011;8170;48.118;11.628;2023-04-06T02:17:41;8.30;;;7.50;;
1014;SDS011;8170;48.118;11.628;2023-04-06T02:18:47;9.55;;;7.90;;
1014;SDS011;8170;48.118;11.628;2023-04-06T02:19:50;8.82;;;7.45;;
1014;SDS011;8170;48.118;11.628;2023-04-06T02:20:54;9.57;;;7.57;;
1014;SDS011;8170;48.118;11.628;2023-04-06T02:21:57;7.25;;;6.55;;
1014;SDS011;8170;48.118;11.628;2023-04-06T02:23:00;8.35;;;6.93;;
1014;SDS011;8170;48.118;11.628;2023-04-06T02:24:02;7.32;;;6.63;;
1014;SDS011;8170;48.118;11.628;2023-04-06T02:25:06;8.05;;;7.25;;
1014;SDS011;8170;48.118;11.628;2023-04-06T02:26:09;7.85;;;7.10;;
1014;SDS011;8170;48.118;11.628;2023-04-06T02:27:13;10.20;;;7.43;;
1014;SDS011;8170;48.118;11.628;2023-04-06T02:28:23;8.88;;;7.97;;
1014;SDS011;8170;48.118;11.628;2023-04-06T02:29:26;8.27;;;7.43;;
1014;SDS011;8170;48.118;11.628;2023-04-06T02:30:29;7.95;;;6.85;;
1014;SDS011;8170;48.118;11.628;2023-04-06T02:31:35;8.40;;;6.85;;
1014;SDS011;8170;48.118;11.628;2023-04-06T02:32:42;9.35;;;8.20;;
1014;SDS011;8170;48.118;11.628;2023-04-06T02:33:54;9.80;;;7.90;;
1014;SDS011;8170;48.118;11.628;2023-04-06T02:35:04;8.75;;;7.00;;
1014;SDS011;8170;48.118;11.628;2023-04-06T02:36:09;10.07;;;7.40;;
1014;SDS011;8170;48.118;11.628;2023-04-06T02:37:11;7.40;;;6.60;;
1014;SDS011;8170;48.118;11.628;2023-04-06T02:38:14;10.75;;;8.35;;
1014;SDS011;8170;48.118;11.628;2023-04-06T02:39:17;8.75;;;6.68;;
1014;SDS011;8170;48.118;11.628;2023-04-06T02:40:20;8.82;;;7.93;;
1014;SDS011;8170;48.118;11.628;2023-04-06T02:41:23;9.20;;;7.15;;
1014;SDS011;8170;48.118;11.628;2023-04-06T02:42:27;8.93;;;7.32;;
1014;SDS011;8170;48.118;11.628;2023-04-06T02:43:30;7.43;;;6.65;;
1014;SDS011;8170;48.118;11.628;2023-04-06T02:44:59;8.38;;;6.90;;
1014;SDS011;8170;48.118;11.628;2023-04-06T02:46:07;7.65;;;6.60;;
1014;SDS011;8170;48.118;11.628;2023-04-06T02:47:13;9.13;;;8.18;;
1014;SDS011;8170;48.118;11.628;2023-04-06T02:48:21;7.65;;;6.85;;
1014;SDS011;8170;48.118;11.628;2023-04-06T02:49:23;9.65;;;7.22;;
1014;SDS011;8170;48.118;11.628;2023-04-06T02:50:29;9.65;;;6.70;;
1014;SDS011;8170;48.118;11.628;2023-04-06T02:51:35;12.68;;;8.68;;
1014;SDS011;8170;48.118;11.628;2023-04-06T02:52:52;9.75;;;7.90;;
1014;SDS011;8170;48.118;11.628;2023-04-06T02:53:56;8.13;;;7.25;;
1014;SDS011;8170;48.118;11.628;2023-04-06T02:54:58;9.75;;;7.88;;
1014;SDS011;8170;48.118;11.628;2023-04-06T02:56:04;8.82;;;7.85;;
1014;SDS011;8170;48.118;11.628;2023-04-06T02:57:23;9.95;;;7.85;;
1014;SDS011;8170;48.118;11.628;2023-04-06T02:58:27;8.27;;;7.53;;
1014;SDS011;8170;48.118;11.628;2023-04-06T02:59:31;9.30;;;7.70;;
1014;SDS011;8170;48.118;11.628;2023-04-06T03:00:44;8.90;;;8.00;;
1014;SDS011;8170;48.118;11.628;2023-04-06T03:01:47;11.60;;;7.10;;
1014;SDS011;8170;48.118;11.628;2023-04-06T03:02:51;9.50;;;8.35;;
1014;SDS011;8170;48.118;11.628;2023-04-06T03:03:54;10.55;;;8.00;;
1014;SDS011;8170;48.118;11.628;2023-04-06T03:05:00;9.88;;;8.52;;
1014;SDS011;8170;48.118;11.628;2023-04-06T03:06:08;7.47;;;6.68;;
1014;SDS011;8170;48.118;11.628;2023-04-06T03:07:12;8.20;;;6.90;;
1014;SDS011;8170;48.118;11.628;2023-04-06T03:08:14;9.15;;;7.45;;
1014;SDS011;8170;48.118;11.628;2023-04-06T03:09:19;7.97;;;6.97;;
1014;SDS011;8170;48.118;11.628;2023-04-06T03:10:21;10.00;;;7.90;;
1014;SDS011;8170;48.118;11.628;2023-04-06T03:11:25;8.55;;;7.53;;
1014;SDS011;8170;48.118;11.628;2023-04-06T03:12:28;9.25;;;7.38;;
1014;SDS011;8170;48.118;11.628;2023-04-06T03:13:57;7.65;;;6.85;;
1014;SDS011;8170;48.118;11.628;2023-04-06T03:15:01;9.38;;;6.95;;
1014;SDS011;8170;48.118;11.628;2023-04-06T03:16:04;9.80;;;8.30;;
1014;SDS011;8170;48.118;11.628;2023-04-06T03:17:08;9.90;;;8.25;;
1014;SDS011;8170;48.118;11.628;2023-04-06T03:18:12;11.65;;;8.32;;
1014;SDS011;8170;48.118;11.628;2023-04-06T03:19:21;13.73;;;7.65;;
1014;SDS011;8170;48.118;11.628;2023-04-06T03:20:23;11.02;;;8.10;;
1014;SDS011;8170;48.118;11.628;2023-04-06T03:21:27;12.80;;;9.05;;
1014;SDS011;8170;48.118;11.628;2023-04-06T03:22:29;10.38;;;8.20;;
1014;SDS011;8170;48.118;11.628;2023-04-06T03:23:32;14.70;;;9.32;;
1014;SDS011;8170;48.118;11.628;2023-04-06T03:24:36;9.68;;;8.48;;
1014;SDS011;8170;48.118;11.628;2023-04-06T03:25:39;12.07;;;9.90;;
1014;SDS011;8170;48.118;11.628;2023-04-06T03:26:44;11.80;;;8.95;;
1014;SDS011;8170;48.118;11.628;2023-04-06T03:28:53;11.68;;;9.05;;
1014;SDS011;8170;48.118;11.628;2023-04-06T03:30:01;12.57;;;9.60;;
1014;SDS011;8170;48.118;11.628;2023-04-06T03:31:08;12.90;;;9.68;;
1014;SDS011;8170;48.118;11.628;2023-04-06T03:32:38;13.27;;;10.00;;
1014;SDS011;8170;48.118;11.628;2023-04-06T03:33:42;10.70;;;8.35;;
1014;SDS011;8170;48.118;11.628;2023-04-06T03:34:51;11.73;;;8.25;;
1014;SDS011;8170;48.118;11.628;2023-04-06T03:35:53;10.95;;;7.30;;
1014;SDS011;8170;48.118;11.628;2023-04-06T03:36:59;10.00;;;7.22;;
1014;SDS011;8170;48.118;11.628;2023-04-06T03:38:14;11.10;;;8.48;;
1014;SDS011;8170;48.118;11.628;2023-04-06T03:39:16;8.00;;;7.20;;
1014;SDS011;8170;48.118;11.628;2023-04-06T03:40:19;8.38;;;7.40;;
1014;SDS011;8170;48.118;11.628;2023-04-06T03:41:21;10.60;;;8.32;;
1014;SDS011;8170;48.118;11.628;2023-04-06T03:42:31;10.20;;;8.63;;
1014;SDS011;8170;48.118;11.628;2023-04-06T03:43:43;10.25;;;9.00;;
1014;SDS011;8170;48.118;11.628;2023-04-06T03:44:47;12.90;;;8.93;;
1014;SDS011;8170;48.118;11.628;2023-04-06T03:45:49;9.65;;;8.35;;
1014;SDS011;8170;48.118;11.628;2023-04-06T03:46:53;9.55;;;7.60;;
1014;SDS011;8170;48.118;11.628;2023-04-06T03:47:56;11.63;;;9.35;;
1014;SDS011;8170;48.118;11.628;2023-04-06T03:49:01;10.98;;;8.40;;
1014;SDS011;8170;48.118;11.628;2023-04-06T03:50:04;10.55;;;8.10;;
1014;SDS011;8170;48.118;11.628;2023-04-06T03:51:09;14.35;;;8.52;;
1014;SDS011;8170;48.118;11.628;2023-04-06T03:52:12;10.32;;;7.40;;
1014;SDS011;8170;48.118;11.628;2023-04-06T03:53:15;9.35;;;8.35;;
1014;SDS011;8170;48.118;11.628;2023-04-06T03:54:17;12.35;;;8.50;;
1014;SDS011;8170;48.118;11.628;2023-04-06T03:55:20;9.25;;;8.15;;
1014;SDS011;8170;48.118;11.628;2023-04-06T03:56:22;8.90;;;7.13;;
1014;SDS011;8170;48.118;11.628;2023-04-06T03:57:28;9.40;;;8.25;;
1014;SDS011;8170;48.118;11.628;2023-04-06T03:58:31;10.68;;;8.45;;
1014;SDS011;8170;48.118;11.628;2023-04-06T03:59:35;9.80;;;8.80;;
1014;SDS011;8170;48.118;11.628;2023-04-06T04:00:37;8.85;;;7.72;;
1014;SDS011;8170;48.118;11.628;2023-04-06T04:01:41;11.90;;;7.85;;
1014;SDS011;8170;48.118;11.628;2023-04-06T04:02:43;10.25;;;7.60;;
1014;SDS011;8170;48.118;11.628;2023-04-06T04:03:47;8.70;;;7.50;;
1014;SDS011;8170;48.118;11.628;2023-04-06T04:04:53;9.75;;;8.38;;
1014;SDS011;8170;48.118;11.628;2023-04-06T04:05:56;8.05;;;7.25;;
1014;SDS011;8170;48.118;11.628;2023-04-06T04:07:00;12.15;;;8.45;;
1014;SDS011;8170;48.118;11.628;2023-04-06T04:08:03;11.18;;;8.32;;
1014;SDS011;8170;48.118;11.628;2023-04-06T04:09:05;12.00;;;7.82;;
1014;SDS011;8170;48.118;11.628;2023-04-06T04:10:09;12.70;;;7.35;;
1014;SDS011;8170;48.118;11.628;2023-04-06T04:11:12;7.72;;;6.93;;
1014;SDS011;8170;48.118;11.628;2023-04-06T04:12:17;9.30;;;7.20;;
1014;SDS011;8170;48.118;11.628;2023-04-06T04:13:20;8.00;;;6.80;;
1014;SDS011;8170;48.118;11.628;2023-04-06T04:14:25;10.02;;;7.70;;
1014;SDS011;8170;48.118;11.628;2023-04-06T04:15:27;8.70;;;7.38;;
1014;SDS011;8170;48.118;11.628;2023-04-06T04:16:31;10.00;;;7.97;;
1014;SDS011;8170;48.118;11.628;2023-04-06T04:17:33;12.15;;;8.07;;
1014;SDS011;8170;48.118;11.628;2023-04-06T04:18:37;8.70;;;7.80;;
1014;SDS011;8170;48.118;11.628;2023-04-06T04:19:40;10.02;;;7.53;;
1014;SDS011;8170;48.118;11.628;2023-04-06T04:20:45;10.35;;;7.43;;
1014;SDS011;8170;48.118;11.628;2023-04-06T04:21:47;10.10;;;7.38;;
1014;SDS011;8170;48.118;11.628;2023-04-06T04:22:55;12.20;;;8.20;;
1014;SDS011;8170;48.118;11.628;2023-04-06T04:23:58;9.23;;;8.32;;
1014;SDS011;8170;48.118;11.628;2023-04-06T04:25:01;9.48;;;8.30;;
1014;SDS011;8170;48.118;11.628;2023-04-06T04:26:05;10.45;;;8.02;;
1014;SDS011;8170;48.118;11.628;2023-04-06T04:27:08;9.38;;;7.80;;
1014;SDS011;8170;48.118;11.628;2023-04-06T04:28:12;11.38;;;7.45;;
1014;SDS011;8170;48.118;11.628;2023-04-06T04:29:17;7.63;;;6.82;;
1014;SDS011;8170;48.118;11.628;2023-04-06T04:30:23;8.70;;;7.47;;
1014;SDS011;8170;48.118;11.628;2023-04-06T04:31:28;9.02;;;7.35;;
1014;SDS011;8170;48.118;11.628;2023-04-06T04:32:33;12.15;;;8.32;;
1014;SDS011;8170;48.118;11.628;2023-04-06T04:33:39;8.30;;;6.40;;
1014;SDS011;8170;48.118;11.628;2023-04-06T04:34:47;8.48;;;7.20;;
1014;SDS011;8170;48.118;11.628;2023-04-06T04:36:06;11.88;;;8.82;;
1014;SDS011;8170;48.118;11.628;2023-04-06T04:37:14;9.60;;;7.65;;
1014;SDS011;8170;48.118;11.628;2023-04-06T04:38:22;12.40;;;8.75;;
1014;SDS011;8170;48.118;11.628;2023-04-06T04:39:27;8.32;;;6.78;;
1014;SDS011;8170;48.118;11.628;2023-04-06T04:40:36;10.52;;;9.43;;
1014;SDS011;8170;48.118;11.628;2023-04-06T04:41:44;10.82;;;8.40;;
1014;SDS011;8170;48.118;11.628;2023-04-06T04:42:47;10.27;;;8.38;;
1014;SDS011;8170;48.118;11.628;2023-04-06T04:44:10;8.18;;;7.03;;
1014;SDS011;8170;48.118;11.628;2023-04-06T04:45:13;12.65;;;7.38;;
1014;SDS011;8170;48.118;11.628;2023-04-06T04:46:16;9.57;;;8.57;;
1014;SDS011;8170;48.118;11.628;2023-04-06T04:47:19;12.30;;;8.00;;
1014;SDS011;8170;48.118;11.628;2023-04-06T04:48:22;10.68;;;7.93;;
1014;SDS011;8170;48.118;11.628;2023-04-06T04:49:30;11.57;;;7.45;;
1014;SDS011;8170;48.118;11.628;2023-04-06T04:50:32;9.20;;;7.25;;
1014;SDS011;8170;48.118;11.628;2023-04-06T04:51:37;10.38;;;7.97;;
1014;SDS011;8170;48.118;11.628;2023-04-06T04:52:46;7.90;;;7.10;;
1014;SDS011;8170;48.118;11.628;2023-04-06T04:53:53;9.13;;;7.35;;
1014;SDS011;8170;48.118;11.628;2023-04-06T04:55:00;12.15;;;7.50;;
1014;SDS011;8170;48.118;11.628;2023-04-06T04:56:03;8.93;;;8.00;;
1014;SDS011;8170;48.118;11.628;2023-04-06T04:57:06;9.60;;;7.80;;
1014;SDS011;8170;48.118;11.628;2023-04-06T04:58:15;13.15;;;9.48;;
1014;SDS011;8170;48.118;11.628;2023-04-06T04:59:28;9.35;;;8.30;;
1014;SDS011;8170;48.118;11.628;2023-04-06T05:00:38;12.40;;;8.38;;
1014;SDS011;8170;48.118;11.628;2023-04-06T05:01:40;10.25;;;6.88;;
1014;SDS011;8170;48.118;11.628;2023-04-06T05:02:58;9.73;;;7.60;;
1014;SDS011;8170;48.118;11.628;2023-04-06T05:04:04;9.05;;;8.13;;
1014;SDS011;8170;48.118;11.628;2023-04-06T05:05:08;11.75;;;8.77;;
1014;SDS011;8170;48.118;11.628;2023-04-06T05:06:10;8.60;;;7.70;;
1014;SDS011;8170;48.118;11.628;2023-04-06T05:07:16;9.25;;;8.38;;
1014;SDS011;8170;48.118;11.628;2023-04-06T05:08:20;10.35;;;8.30;;
1014;SDS011;8170;48.118;11.628;2023-04-06T05:09:23;9.98;;;8.65;;
1014;SDS011;8170;48.118;11.628;2023-04-06T05:10:26;10.30;;;7.82;;
1014;SDS011;8170;48.118;11.628;2023-04-06T05:11:33;8.15;;;7.35;;
1014;SDS011;8170;48.118;11.628;2023-04-06T05:12:37;9.00;;;7.70;;
1014;SDS011;8170;48.118;11.628;2023-04-06T05:13:44;12.73;;;7.88;;
1014;SDS011;8170;48.118;11.628;2023-04-06T05:14:52;7.80;;;7.00;;
1014;SDS011;8170;48.118;11.628;2023-04-06T05:15:58;9.20;;;7.55;;
1014;SDS011;8170;48.118;11.628;2023-04-06T05:17:05;9.13;;;8.00;;
1014;SDS011;8170;48.118;11.628;2023-04-06T05:18:08;7.70;;;6.70;;
1014;SDS011;8170;48.118;11.628;2023-04-06T05:19:12;7.82;;;7.03;;
1014;SDS011;8170;48.118;11.628;2023-04-06T05:20:18;8.18;;;7.30;;
1014;SDS011;8170;48.118;11.628;2023-04-06T05:21:24;9.60;;;7.55;;
1014;SDS011;8170;48.118;11.628;2023-04-06T05:22:36;7.22;;;6.30;;
1014;SDS011;8170;48.118;11.628;2023-04-06T05:23:42;7.05;;;6.07;;
1014;SDS011;8170;48.118;11.628;2023-04-06T05:24:45;8.35;;;6.20;;
1014;SDS011;8170;48.118;11.628;2023-04-06T05:25:49;8.77;;;5.95;;
1014;SDS011;8170;48.118;11.628;2023-04-06T05:26:55;7.75;;;6.88;;
1014;SDS011;8170;48.118;11.628;2023-04-06T05:27:58;9.98;;;6.80;;
1014;SDS011;8170;48.118;11.628;2023-04-06T05:29:05;8.35;;;7.45;;
1014;SDS011;8170;48.118;11.628;2023-04-06T05:30:11;7.97;;;7.00;;
1014;SDS011;8170;48.118;11.628;2023-04-06T05:31:17;6.93;;;5.75;;
1014;SDS011;8170;48.118;11.628;2023-04-06T05:32:24;9.27;;;6.28;;
1014;SDS011;8170;48.118;11.628;2023-04-06T05:33:27;6.93;;;6.22;;
1014;SDS011;8170;48.118;11.628;2023-04-06T05:34:36;7.20;;;6.20;;
1014;SDS011;8170;48.118;11.628;2023-04-06T05:35:40;7.40;;;6.70;;
1014;SDS011;8170;48.118;11.628;2023-04-06T05:36:46;7.18;;;5.85;;
1014;SDS011;8170;48.118;11.628;2023-04-06T05:39:00;6.78;;;6.10;;
1014;SDS011;8170;48.118;11.628;2023-04-06T05:40:09;6.88;;;6.18;;
1014;SDS011;8170;48.118;11.628;2023-04-06T05:41:11;6.28;;;5.68;;
1014;SDS011;8170;48.118;11.628;2023-04-06T05:42:16;6.30;;;5.70;;
1014;SDS011;8170;48.118;11.628;2023-04-06T05:43:24;5.78;;;5.18;;
1014;SDS011;8170;48.118;11.628;2023-04-06T05:44:30;8.77;;;6.78;;
1014;SDS011;8170;48.118;11.628;2023-04-06T05:45:43;6.50;;;5.90;;
1014;SDS011;8170;48.118;11.628;2023-04-06T05:46:47;6.78;;;6.10;;
1014;SDS011;8170;48.118;11.628;2023-04-06T05:47:50;6.70;;;5.35;;
1014;SDS011;8170;48.118;11.628;2023-04-06T05:48:58;8.02;;;5.47;;
1014;SDS011;8170;48.118;11.628;2023-04-06T05:50:05;6.55;;;5.80;;
1014;SDS011;8170;48.118;11.628;2023-04-06T05:51:12;7.90;;;5.50;;
1014;SDS011;8170;48.118;11.628;2023-04-06T05:52:19;7.65;;;6.95;;
1014;SDS011;8170;48.118;11.628;2023-04-06T05:53:23;7.47;;;6.78;;
1014;SDS011;8170;48.118;11.628;2023-04-06T05:54:32;8.05;;;5.53;;
1014;SDS011;8170;48.118;11.628;2023-04-06T05:55:37;6.78;;;5.82;;
1014;SDS011;8170;48.118;11.628;2023-04-06T05:56:46;7.22;;;6.63;;
1014;SDS011;8170;48.118;11.628;2023-04-06T05:57:50;7.45;;;6.72;;
1014;SDS011;8170;48.118;11.628;2023-04-06T05:58:55;7.30;;;6.07;;
1014;SDS011;8170;48.118;11.628;2023-04-06T06:00:02;7.32;;;6.07;;
1014;SDS011;8170;48.118;11.628;2023-04-06T06:01:19;6.70;;;5.90;;
1014;SDS011;8170;48.118;11.628;2023-04-06T06:02:22;6.13;;;5.55;;
1014;SDS011;8170;48.118;11.628;2023-04-06T06:03:26;6.55;;;5.18;;
1014;SDS011;8170;48.118;11.628;2023-04-06T06:04:32;6.10;;;5.45;;
1014;SDS011;8170;48.118;11.628;2023-04-06T06:05:36;6.82;;;5.13;;
1014;SDS011;8170;48.118;11.628;2023-04-06T06:06:43;5.53;;;4.90;;
1014;SDS011;8170;48.118;11.628;2023-04-06T06:07:50;10.98;;;6.18;;
1014;SDS011;8170;48.118;11.628;2023-04-06T06:08:52;5.80;;;5.20;;
1014;SDS011;8170;48.118;11.628;2023-04-06T06:09:57;10.73;;;6.22;;
1014;SDS011;8170;48.118;11.628;2023-04-06T06:11:05;5.57;;;5.07;;
1014;SDS011;8170;48.118;11.628;2023-04-06T06:12:08;6.57;;;5.55;;
1014;SDS011;8170;48.118;11.628;2023-04-06T06:13:14;7.88;;;5.35;;
1014;SDS011;8170;48.118;11.628;2023-04-06T06:14:18;6.07;;;5.43;;
1014;SDS011;8170;48.118;11.628;2023-04-06T06:15:21;6.18;;;5.55;;
1014;SDS011;8170;48.118;11.628;2023-04-06T06:16:26;6.45;;;5.85;;
1014;SDS011;8170;48.118;11.628;2023-04-06T06:17:30;5.85;;;5.07;;
1014;SDS011;8170;48.118;11.628;2023-04-06T06:18:36;7.32;;;5.40;;
1014;SDS011;8170;48.118;11.628;2023-04-06T06:19:42;9.73;;;6.00;;
1014;SDS011;8170;48.118;11.628;2023-04-06T06:20:46;6.53;;;5.93;;
1014;SDS011;8170;48.118;11.628;2023-04-06T06:21:52;9.73;;;5.15;;
1014;SDS011;8170;48.118;11.628;2023-04-06T06:22:56;7.50;;;6.00;;
1014;SDS011;8170;48.118;11.628;2023-04-06T06:23:59;6.95;;;5.45;;
1014;SDS011;8170;48.118;11.628;2023-04-06T06:25:06;7.68;;;5.07;;
1014;SDS011;8170;48.118;11.628;2023-04-06T06:26:11;6.03;;;5.22;;
1014;SDS011;8170;48.118;11.628;2023-04-06T06:27:16;7.68;;;5.60;;
1014;SDS011;8170;48.118;11.628;2023-04-06T06:28:21;6.70;;;6.00;;
1014;SDS011;8170;48.118;11.628;2023-04-06T06:29:26;8.18;;;5.40;;
1014;SDS011;8170;48.118;11.628;2023-04-06T06:30:33;6.28;;;5.50;;
1014;SDS011;8170;48.118;11.628;2023-04-06T06:31:38;6.45;;;5.75;;
1014;SDS011;8170;48.118;11.628;2023-04-06T06:32:43;6.60;;;6.00;;
1014;SDS011;8170;48.118;11.628;2023-04-06T06:33:48;6.95;;;5.60;;
1014;SDS011;8170;48.118;11.628;2023-04-06T06:34:54;7.65;;;6.35;;
1014;SDS011;8170;48.118;11.628;2023-04-06T06:35:59;7.30;;;5.13;;
1014;SDS011;8170;48.118;11.628;2023-04-06T06:37:05;7.03;;;5.18;;
1014;SDS011;8170;48.118;11.628;2023-04-06T06:38:11;6.35;;;5.70;;
1014;SDS011;8170;48.118;11.628;2023-04-06T06:39:21;11.13;;;7.45;;
1014;SDS011;8170;48.118;11.628;2023-04-06T06:40:26;7.55;;;6.80;;
1014;SDS011;8170;48.118;11.628;2023-04-06T06:41:30;8.20;;;7.00;;
1014;SDS011;8170;48.118;11.628;2023-04-06T06:42:34;8.82;;;7.13;;
1014;SDS011;8170;48.118;11.628;2023-04-06T06:43:50;8.70;;;7.85;;
1014;SDS011;8170;48.118;11.628;2023-04-06T06:44:54;9.23;;;7.53;;
1014;SDS011;8170;48.118;11.628;2023-04-06T06:45:58;7.40;;;6.70;;
1014;SDS011;8170;48.118;11.628;2023-04-06T06:47:02;8.25;;;7.40;;
1014;SDS011;8170;48.118;11.628;2023-04-06T06:48:06;13.77;;;7.18;;
1014;SDS011;8170;48.118;11.628;2023-04-06T06:49:13;7.50;;;6.80;;
1014;SDS011;8170;48.118;11.628;2023-04-06T06:50:16;7.40;;;6.65;;
1014;SDS011;8170;48.118;11.628;2023-04-06T06:51:21;6.88;;;6.18;;
1014;SDS011;8170;48.118;11.628;2023-04-06T06:52:26;7.30;;;6.60;;
1014;SDS011;8170;48.118;11.628;2023-04-06T06:53:32;6.32;;;5.72;;
1014;SDS011;8170;48.118;11.628;2023-04-06T06:54:37;10.63;;;6.63;;
1014;SDS011;8170;48.118;11.628;2023-04-06T06:55:44;6.78;;;6.03;;
1014;SDS011;8170;48.118;11.628;2023-04-06T06:56:48;6.72;;;6.07;;
1014;SDS011;8170;48.118;11.628;2023-04-06T06:57:58;8.13;;;7.07;;
1014;SDS011;8170;48.118;11.628;2023-04-06T06:59:03;7.07;;;6.03;;
1014;SDS011;8170;48.118;11.628;2023-04-06T07:00:09;7.60;;;6.80;;
1014;SDS011;8170;48.118;11.628;2023-04-06T07:01:18;7.45;;;6.72;;
1014;SDS011;8170;48.118;11.628;2023-04-06T07:02:25;7.70;;;6.38;;
1014;SDS011;8170;48.118;11.628;2023-04-06T07:03:31;7.20;;;5.55;;
1014;SDS011;8170;48.118;11.628;2023-04-06T07:04:37;8.85;;;6.57;;
1014;SDS011;8170;48.118;11.628;2023-04-06T07:05:46;7.28;;;6.35;;
1014;SDS011;8170;48.118;11.628;2023-04-06T07:06:57;7.20;;;6.00;;
1014;SDS011;8170;48.118;11.628;2023-04-06T07:08:01;7.68;;;6.85;;
1014;SDS011;8170;48.118;11.628;2023-04-06T07:09:07;6.45;;;5.82;;
1014;SDS011;8170;48.118;11.628;2023-04-06T07:10:11;7.80;;;7.00;;
1014;SDS011;8170;48.118;11.628;2023-04-06T07:11:18;8.00;;;6.72;;
1014;SDS011;8170;48.118;11.628;2023-04-06T07:12:23;8.50;;;7.70;;
1014;SDS011;8170;48.118;11.628;2023-04-06T07:13:27;8.85;;;6.90;;
1014;SDS011;8170;48.118;11.628;2023-04-06T07:14:34;7.53;;;6.82;;
1014;SDS011;8170;48.118;11.628;2023-04-06T07:15:39;8.30;;;7.50;;
1014;SDS011;8170;48.118;11.628;2023-04-06T07:16:45;8.38;;;7.68;;
1014;SDS011;8170;48.118;11.628;2023-04-06T07:17:51;9.32;;;7.68;;
1014;SDS011;8170;48.118;11.628;2023-04-06T07:19:00;9.90;;;7.55;;
1014;SDS011;8170;48.118;11.628;2023-04-06T07:20:09;10.07;;;7.88;;
1014;SDS011;8170;48.118;11.628;2023-04-06T07:21:14;8.93;;;8.02;;
1014;SDS011;8170;48.118;11.628;2023-04-06T07:22:20;8.70;;;7.88;;
1014;SDS011;8170;48.118;11.628;2023-04-06T07:23:30;11.93;;;9.05;;
1014;SDS011;8170;48.118;11.628;2023-04-06T07:49:09;12.48;;;7.93;;
1014;SDS011;8170;48.118;11.628;2023-04-06T07:50:17;7.68;;;6.85;;
1014;SDS011;8170;48.118;11.628;2023-04-06T07:51:20;8.27;;;7.15;;
1014;SDS011;8170;48.118;11.628;2023-04-06T07:52:28;12.52;;;8.25;;
1014;SDS011;8170;48.118;11.628;2023-04-06T07:53:35;8.88;;;7.85;;
1014;SDS011;8170;48.118;11.628;2023-04-06T07:54:40;9.25;;;8.35;;
1014;SDS011;8170;48.118;11.628;2023-04-06T07:55:43;9.32;;;8.32;;
1014;SDS011;8170;48.118;11.628;2023-04-06T07:56:57;9.27;;;8.38;;
1014;SDS011;8170;48.118;11.628;2023-04-06T07:58:03;7.90;;;7.10;;